DLH3WH EDDM-LIEO
Flight info
| Callsign | DLH3WH |
|---|---|
| Flight time | N/A |
| Altitude | 35000 |
| Route | TURBU7S/26L TURBU Y107 TOBSO DCT BAKOR DCT IPLUB DCT DEDOM DCT BATOX |
| Aircraft | A321/M-SDE2E3FGIJ1LORWXYZ/HB1 |
Departure
| Time | N/A |
|---|---|
| Airport | Munich Airport (EDDM) |
Arrival
| Time | 2026-05-03 21:16 |
|---|---|
| Airport | Olbia Costa Smeralda Airport (LIEO) |
| Time | Latitude | Longitude | Altitude | Speed | Heading |
|---|---|---|---|---|---|
| 2026-05-03 20:15 | 47.34607 | 11.92290 | 25100 ft | 419 kts | 189° |
| 2026-05-03 20:15 | 47.31710 | 11.91711 | 25471 ft | 421 kts | 189° |
| 2026-05-03 20:15 | 47.28807 | 11.91130 | 25822 ft | 424 kts | 189° |
| 2026-05-03 20:15 | 47.25873 | 11.90546 | 26171 ft | 426 kts | 189° |
| 2026-05-03 20:16 | 47.22954 | 11.89964 | 26503 ft | 428 kts | 189° |
| 2026-05-03 20:16 | 47.20002 | 11.89379 | 26850 ft | 430 kts | 189° |
| 2026-05-03 20:16 | 47.17017 | 11.88788 | 27176 ft | 432 kts | 189° |
| 2026-05-03 20:16 | 47.14035 | 11.88198 | 27503 ft | 434 kts | 189° |
| 2026-05-03 20:17 | 47.11017 | 11.87600 | 27804 ft | 437 kts | 189° |
| 2026-05-03 20:17 | 47.08001 | 11.87003 | 28130 ft | 439 kts | 189° |
| 2026-05-03 20:17 | 47.04944 | 11.86399 | 28436 ft | 441 kts | 189° |
| 2026-05-03 20:17 | 47.01880 | 11.85734 | 28727 ft | 442 kts | 192° |
| 2026-05-03 20:18 | 46.98846 | 11.84852 | 29000 ft | 444 kts | 194° |
| 2026-05-03 20:18 | 46.95842 | 11.83891 | 29292 ft | 446 kts | 194° |
| 2026-05-03 20:18 | 46.92794 | 11.82919 | 29664 ft | 445 kts | 194° |
| 2026-05-03 20:18 | 46.89787 | 11.81966 | 30069 ft | 444 kts | 194° |
| 2026-05-03 20:19 | 46.86734 | 11.81004 | 30472 ft | 442 kts | 194° |
| 2026-05-03 20:19 | 46.83747 | 11.80064 | 30839 ft | 442 kts | 194° |
| 2026-05-03 20:19 | 46.80736 | 11.79115 | 31181 ft | 441 kts | 194° |
| 2026-05-03 20:19 | 46.77719 | 11.78162 | 31519 ft | 441 kts | 194° |
| 2026-05-03 20:20 | 46.74747 | 11.77225 | 31866 ft | 440 kts | 194° |
| 2026-05-03 20:20 | 46.71741 | 11.76276 | 32212 ft | 439 kts | 194° |
| 2026-05-03 20:20 | 46.68767 | 11.75337 | 32551 ft | 438 kts | 195° |
| 2026-05-03 20:20 | 46.65806 | 11.74404 | 32880 ft | 438 kts | 195° |
| 2026-05-03 20:21 | 46.62806 | 11.73460 | 33210 ft | 437 kts | 195° |
| 2026-05-03 20:21 | 46.59874 | 11.72438 | 33513 ft | 435 kts | 198° |
| 2026-05-03 20:21 | 46.56963 | 11.71257 | 33767 ft | 436 kts | 198° |
| 2026-05-03 20:21 | 46.54011 | 11.70056 | 33977 ft | 437 kts | 198° |
| 2026-05-03 20:22 | 46.51099 | 11.68874 | 34183 ft | 438 kts | 198° |
| 2026-05-03 20:22 | 46.48129 | 11.67671 | 34392 ft | 440 kts | 198° |
| 2026-05-03 20:22 | 46.45202 | 11.66489 | 34596 ft | 441 kts | 198° |
| 2026-05-03 20:22 | 46.42239 | 11.65292 | 34785 ft | 441 kts | 198° |
| 2026-05-03 20:23 | 46.39289 | 11.64101 | 34966 ft | 442 kts | 198° |
| 2026-05-03 20:23 | 46.36332 | 11.62908 | 35141 ft | 443 kts | 198° |
| 2026-05-03 20:23 | 46.33349 | 11.61706 | 35173 ft | 444 kts | 198° |
| 2026-05-03 20:24 | 46.27405 | 11.59317 | 35182 ft | 444 kts | 198° |
| 2026-05-03 20:24 | 46.21440 | 11.56922 | 35180 ft | 444 kts | 199° |
| 2026-05-03 20:25 | 46.15479 | 11.54536 | 35177 ft | 444 kts | 199° |
| 2026-05-03 20:25 | 46.09506 | 11.52148 | 35178 ft | 444 kts | 199° |
| 2026-05-03 20:26 | 46.03561 | 11.49775 | 35181 ft | 444 kts | 198° |
| 2026-05-03 20:26 | 45.97575 | 11.47393 | 35178 ft | 445 kts | 198° |
| 2026-05-03 20:27 | 45.91636 | 11.45038 | 35161 ft | 445 kts | 199° |
| 2026-05-03 20:27 | 45.85672 | 11.42682 | 35147 ft | 445 kts | 198° |
| 2026-05-03 20:28 | 45.79694 | 11.40332 | 35131 ft | 445 kts | 199° |
| 2026-05-03 20:28 | 45.73691 | 11.37973 | 35119 ft | 445 kts | 199° |
| 2026-05-03 20:29 | 45.67721 | 11.35625 | 35111 ft | 445 kts | 199° |
| 2026-05-03 20:29 | 45.61706 | 11.33246 | 35109 ft | 446 kts | 199° |
| 2026-05-03 20:30 | 45.55716 | 11.30874 | 35105 ft | 446 kts | 199° |
| 2026-05-03 20:30 | 45.49741 | 11.28528 | 35101 ft | 446 kts | 199° |
| 2026-05-03 20:31 | 45.43787 | 11.26204 | 35094 ft | 446 kts | 199° |
| 2026-05-03 20:31 | 45.37780 | 11.23867 | 35092 ft | 445 kts | 199° |
| 2026-05-03 20:32 | 45.31800 | 11.21541 | 35090 ft | 446 kts | 199° |
| 2026-05-03 20:32 | 45.25768 | 11.19207 | 35084 ft | 445 kts | 199° |
| 2026-05-03 20:33 | 45.19772 | 11.16887 | 35079 ft | 446 kts | 199° |
| 2026-05-03 20:33 | 45.13734 | 11.14555 | 35081 ft | 446 kts | 199° |
| 2026-05-03 20:34 | 45.07740 | 11.12250 | 35078 ft | 446 kts | 199° |
| 2026-05-03 20:34 | 45.01728 | 11.09939 | 35078 ft | 446 kts | 199° |
| 2026-05-03 20:35 | 44.95703 | 11.07631 | 35076 ft | 446 kts | 200° |
| 2026-05-03 20:35 | 44.89722 | 11.05345 | 35082 ft | 446 kts | 200° |
| 2026-05-03 20:36 | 44.83722 | 11.03067 | 35087 ft | 447 kts | 200° |
| 2026-05-03 20:36 | 44.77688 | 11.00780 | 35088 ft | 446 kts | 200° |
| 2026-05-03 20:37 | 44.71686 | 10.98502 | 35096 ft | 446 kts | 200° |
| 2026-05-03 20:37 | 44.65702 | 10.96234 | 35100 ft | 446 kts | 200° |
| 2026-05-03 20:38 | 44.59861 | 10.94026 | 35099 ft | 447 kts | 199° |
| 2026-05-03 20:38 | 44.53886 | 10.91769 | 35110 ft | 447 kts | 199° |
| 2026-05-03 20:39 | 44.47884 | 10.89510 | 35114 ft | 447 kts | 200° |
| 2026-05-03 20:39 | 44.41866 | 10.87248 | 35119 ft | 446 kts | 199° |
| 2026-05-03 20:40 | 44.35840 | 10.84989 | 35128 ft | 446 kts | 200° |
| 2026-05-03 20:40 | 44.29861 | 10.82752 | 35141 ft | 446 kts | 200° |
| 2026-05-03 20:41 | 44.23809 | 10.80771 | 35146 ft | 448 kts | 195° |
| 2026-05-03 20:41 | 44.17590 | 10.79544 | 35152 ft | 450 kts | 192° |
| 2026-05-03 20:42 | 44.11393 | 10.78417 | 35155 ft | 451 kts | 192° |
| 2026-05-03 20:42 | 44.05167 | 10.77288 | 35155 ft | 451 kts | 192° |
| 2026-05-03 20:43 | 43.98935 | 10.76159 | 35157 ft | 451 kts | 192° |
| 2026-05-03 20:43 | 43.92688 | 10.75032 | 35154 ft | 451 kts | 192° |
| 2026-05-03 20:44 | 43.86487 | 10.73914 | 35154 ft | 451 kts | 192° |
| 2026-05-03 20:44 | 43.80238 | 10.72798 | 35154 ft | 451 kts | 192° |
| 2026-05-03 20:45 | 43.74031 | 10.71688 | 35150 ft | 450 kts | 192° |
| 2026-05-03 20:45 | 43.67806 | 10.70572 | 35150 ft | 450 kts | 192° |
| 2026-05-03 20:46 | 43.61604 | 10.69464 | 35148 ft | 449 kts | 192° |
| 2026-05-03 20:46 | 43.55392 | 10.68355 | 35148 ft | 448 kts | 192° |
| 2026-05-03 20:47 | 43.49213 | 10.67254 | 35148 ft | 448 kts | 192° |
| 2026-05-03 20:47 | 43.43052 | 10.66156 | 35145 ft | 448 kts | 192° |
| 2026-05-03 20:48 | 43.36874 | 10.65060 | 35144 ft | 449 kts | 192° |
| 2026-05-03 20:48 | 43.30644 | 10.63956 | 35143 ft | 448 kts | 192° |
| 2026-05-03 20:49 | 43.24472 | 10.62865 | 35141 ft | 448 kts | 191° |
| 2026-05-03 20:49 | 43.18283 | 10.61774 | 35141 ft | 448 kts | 192° |
| 2026-05-03 20:50 | 43.12097 | 10.60685 | 35142 ft | 448 kts | 191° |
| 2026-05-03 20:50 | 43.05938 | 10.59606 | 35140 ft | 448 kts | 192° |
| 2026-05-03 20:51 | 42.99732 | 10.58516 | 35138 ft | 448 kts | 191° |
| 2026-05-03 20:51 | 42.93580 | 10.57440 | 35137 ft | 447 kts | 191° |
| 2026-05-03 20:52 | 42.87398 | 10.56365 | 35133 ft | 446 kts | 191° |
| 2026-05-03 20:52 | 42.81278 | 10.55304 | 35137 ft | 446 kts | 192° |
| 2026-05-03 20:53 | 42.75115 | 10.54236 | 34803 ft | 445 kts | 191° |
| 2026-05-03 20:53 | 42.72035 | 10.53702 | 34545 ft | 443 kts | 191° |
| 2026-05-03 20:53 | 42.69012 | 10.53181 | 34275 ft | 440 kts | 191° |
| 2026-05-03 20:53 | 42.65961 | 10.52653 | 33987 ft | 438 kts | 191° |
| 2026-05-03 20:54 | 42.62964 | 10.52131 | 33710 ft | 438 kts | 191° |
| 2026-05-03 20:54 | 42.56898 | 10.51081 | 33146 ft | 439 kts | 191° |
| 2026-05-03 20:54 | 42.53902 | 10.50563 | 32866 ft | 439 kts | 191° |
| 2026-05-03 20:55 | 42.50850 | 10.50037 | 32572 ft | 440 kts | 191° |
| 2026-05-03 20:55 | 42.47799 | 10.49512 | 32140 ft | 441 kts | 191° |
| 2026-05-03 20:55 | 42.44787 | 10.48993 | 31593 ft | 442 kts | 191° |
| 2026-05-03 20:55 | 42.41737 | 10.48469 | 30937 ft | 443 kts | 191° |
| 2026-05-03 20:56 | 42.38664 | 10.47941 | 30214 ft | 444 kts | 191° |
| 2026-05-03 20:56 | 42.35616 | 10.47418 | 29475 ft | 444 kts | 191° |
| 2026-05-03 20:56 | 42.32551 | 10.46892 | 28718 ft | 444 kts | 191° |
| 2026-05-03 20:56 | 42.29510 | 10.46372 | 28210 ft | 439 kts | 191° |
| 2026-05-03 20:57 | 42.26501 | 10.45859 | 27728 ft | 433 kts | 191° |
| 2026-05-03 20:57 | 42.23559 | 10.45358 | 27237 ft | 428 kts | 191° |
| 2026-05-03 20:57 | 42.20626 | 10.44854 | 26715 ft | 424 kts | 191° |
| 2026-05-03 20:57 | 42.17703 | 10.44355 | 26176 ft | 420 kts | 191° |
| 2026-05-03 20:58 | 42.14779 | 10.43858 | 25669 ft | 416 kts | 190° |
| 2026-05-03 20:58 | 42.11955 | 10.43305 | 25146 ft | 411 kts | 193° |
| 2026-05-03 20:58 | 42.09180 | 10.42559 | 24638 ft | 407 kts | 196° |
| 2026-05-03 20:58 | 42.06445 | 10.41711 | 24127 ft | 404 kts | 196° |
| 2026-05-03 20:59 | 42.03718 | 10.40866 | 23581 ft | 402 kts | 196° |
| 2026-05-03 20:59 | 42.00965 | 10.40011 | 23065 ft | 400 kts | 196° |
| 2026-05-03 20:59 | 41.98278 | 10.39177 | 22599 ft | 397 kts | 196° |
| 2026-05-03 20:59 | 41.95596 | 10.38346 | 22111 ft | 394 kts | 196° |
| 2026-05-03 21:00 | 41.92936 | 10.37524 | 21641 ft | 392 kts | 196° |
| 2026-05-03 21:00 | 41.91178 | 10.36983 | 21343 ft | 390 kts | 196° |
| 2026-05-03 21:00 | 41.87657 | 10.35897 | 20737 ft | 386 kts | 196° |
| 2026-05-03 21:00 | 41.85045 | 10.35098 | 20300 ft | 384 kts | 195° |
| 2026-05-03 21:01 | 41.82419 | 10.34285 | 19846 ft | 381 kts | 195° |
| 2026-05-03 21:01 | 41.79844 | 10.33478 | 19375 ft | 379 kts | 195° |
| 2026-05-03 21:01 | 41.77269 | 10.32677 | 18924 ft | 377 kts | 195° |
| 2026-05-03 21:01 | 41.74700 | 10.31881 | 18459 ft | 375 kts | 194° |
| 2026-05-03 21:02 | 41.72180 | 10.31105 | 17979 ft | 373 kts | 194° |
| 2026-05-03 21:02 | 41.69662 | 10.30330 | 17516 ft | 371 kts | 194° |
| 2026-05-03 21:02 | 41.67114 | 10.29546 | 17053 ft | 369 kts | 194° |
| 2026-05-03 21:02 | 41.64612 | 10.28779 | 16582 ft | 367 kts | 194° |
| 2026-05-03 21:03 | 41.62086 | 10.28006 | 16113 ft | 365 kts | 194° |
| 2026-05-03 21:03 | 41.59608 | 10.27247 | 15650 ft | 363 kts | 194° |
| 2026-05-03 21:03 | 41.57131 | 10.26490 | 15168 ft | 361 kts | 194° |
| 2026-05-03 21:03 | 41.54677 | 10.25741 | 14686 ft | 360 kts | 193° |
| 2026-05-03 21:04 | 41.52230 | 10.24994 | 14201 ft | 358 kts | 193° |
| 2026-05-03 21:04 | 41.49794 | 10.24252 | 13715 ft | 356 kts | 193° |
| 2026-05-03 21:04 | 41.47385 | 10.23519 | 13241 ft | 355 kts | 193° |
| 2026-05-03 21:04 | 41.44965 | 10.22782 | 12763 ft | 353 kts | 193° |
| 2026-05-03 21:05 | 41.42562 | 10.22052 | 12283 ft | 351 kts | 193° |
| 2026-05-03 21:05 | 41.40199 | 10.21335 | 11805 ft | 349 kts | 192° |
| 2026-05-03 21:05 | 41.37826 | 10.20616 | 11329 ft | 347 kts | 192° |
| 2026-05-03 21:05 | 41.35461 | 10.19898 | 10854 ft | 345 kts | 192° |
| 2026-05-03 21:06 | 41.33134 | 10.19194 | 10443 ft | 341 kts | 192° |
| 2026-05-03 21:06 | 41.30801 | 10.18489 | 10063 ft | 335 kts | 192° |
| 2026-05-03 21:06 | 41.28529 | 10.17802 | 9690 ft | 330 kts | 192° |
| 2026-05-03 21:06 | 41.26327 | 10.17137 | 9324 ft | 325 kts | 192° |
| 2026-05-03 21:07 | 41.24123 | 10.16470 | 9005 ft | 319 kts | 192° |
| 2026-05-03 21:07 | 41.22020 | 10.15657 | 8736 ft | 312 kts | 205° |
| 2026-05-03 21:07 | 41.20397 | 10.13804 | 8471 ft | 308 kts | 234° |
| 2026-05-03 21:07 | 41.19381 | 10.11337 | 8234 ft | 302 kts | 242° |
| 2026-05-03 21:08 | 41.18473 | 10.08834 | 7983 ft | 296 kts | 242° |
| 2026-05-03 21:08 | 41.17525 | 10.06433 | 7732 ft | 289 kts | 238° |
| 2026-05-03 21:08 | 41.16464 | 10.04186 | 7484 ft | 283 kts | 235° |
| 2026-05-03 21:08 | 41.15390 | 10.01993 | 7232 ft | 278 kts | 235° |
| 2026-05-03 21:09 | 41.14332 | 9.99857 | 6983 ft | 276 kts | 235° |
| 2026-05-03 21:09 | 41.13269 | 9.97720 | 6735 ft | 275 kts | 235° |
| 2026-05-03 21:09 | 41.12219 | 9.95608 | 6478 ft | 274 kts | 234° |
| 2026-05-03 21:09 | 41.11160 | 9.93482 | 6173 ft | 272 kts | 235° |
| 2026-05-03 21:10 | 41.10121 | 9.91398 | 5876 ft | 269 kts | 234° |
| 2026-05-03 21:10 | 41.09097 | 9.89343 | 5581 ft | 266 kts | 234° |
| 2026-05-03 21:10 | 41.08087 | 9.87291 | 5282 ft | 264 kts | 237° |
| 2026-05-03 21:10 | 41.07176 | 9.85193 | 5033 ft | 260 kts | 238° |
| 2026-05-03 21:11 | 41.06250 | 9.83140 | 5000 ft | 255 kts | 236° |
| 2026-05-03 21:11 | 41.05285 | 9.81156 | 4914 ft | 255 kts | 234° |
| 2026-05-03 21:11 | 41.04289 | 9.79205 | 4640 ft | 255 kts | 233° |
| 2026-05-03 21:11 | 41.03283 | 9.77284 | 4305 ft | 255 kts | 233° |
| 2026-05-03 21:12 | 41.02272 | 9.75372 | 3965 ft | 251 kts | 233° |
| 2026-05-03 21:12 | 41.01268 | 9.73474 | 3617 ft | 245 kts | 233° |
| 2026-05-03 21:12 | 41.00293 | 9.71629 | 3316 ft | 242 kts | 233° |
| 2026-05-03 21:12 | 40.99350 | 9.69840 | 2980 ft | 233 kts | 233° |
| 2026-05-03 21:13 | 40.98447 | 9.68125 | 2676 ft | 224 kts | 233° |
| 2026-05-03 21:13 | 40.97574 | 9.66462 | 2381 ft | 215 kts | 233° |
| 2026-05-03 21:13 | 40.96736 | 9.64868 | 2100 ft | 207 kts | 233° |
| 2026-05-03 21:13 | 40.95924 | 9.63321 | 1830 ft | 197 kts | 233° |
| 2026-05-03 21:14 | 40.95185 | 9.61911 | 1668 ft | 175 kts | 234° |
| 2026-05-03 21:14 | 40.94510 | 9.60626 | 1414 ft | 164 kts | 234° |
| 2026-05-03 21:14 | 40.93890 | 9.59442 | 1209 ft | 150 kts | 234° |
| 2026-05-03 21:14 | 40.93319 | 9.58354 | 984 ft | 139 kts | 234° |
| 2026-05-03 21:15 | 40.92762 | 9.57295 | 800 ft | 139 kts | 234° |
| 2026-05-03 21:15 | 40.92210 | 9.56241 | 617 ft | 139 kts | 235° |
| 2026-05-03 21:15 | 40.91658 | 9.55186 | 435 ft | 140 kts | 235° |
| 2026-05-03 21:15 | 40.91103 | 9.54115 | 283 ft | 140 kts | 235° |
| 2026-05-03 21:16 | 40.90546 | 9.53041 | 111 ft | 141 kts | 236° |
| 2026-05-03 21:16 | 40.90010 | 9.52025 | 47 ft | 110 kts | 236° |
| 2026-05-03 21:16 | 40.89702 | 9.51444 | 47 ft | 60 kts | 235° |
| 2026-05-03 21:16 | 40.89487 | 9.51039 | 47 ft | 45 kts | 236° |
| 2026-05-03 21:17 | 40.89350 | 9.50779 | 47 ft | 29 kts | 236° |
| 2026-05-03 21:17 | 40.89285 | 9.50657 | 47 ft | 16 kts | 236° |
| 2026-05-03 21:17 | 40.89289 | 9.50470 | 47 ft | 16 kts | 309° |
| 2026-05-03 21:17 | 40.89360 | 9.50443 | 47 ft | 10 kts | 23° |
| 2026-05-03 21:18 | 40.89435 | 9.50547 | 47 ft | 23 kts | 55° |
| 2026-05-03 21:18 | 40.89534 | 9.50737 | 46 ft | 24 kts | 56° |
| 2026-05-03 21:18 | 40.89629 | 9.50921 | 47 ft | 24 kts | 55° |
| 2026-05-03 21:18 | 40.89727 | 9.51103 | 46 ft | 23 kts | 55° |
| 2026-05-03 21:19 | 40.89820 | 9.51277 | 46 ft | 23 kts | 55° |
| 2026-05-03 21:19 | 40.89910 | 9.51448 | 46 ft | 20 kts | 56° |
| 2026-05-03 21:19 | 40.89971 | 9.51520 | 46 ft | 12 kts | 3° |
| 2026-05-03 21:19 | 40.90049 | 9.51486 | 46 ft | 11 kts | 324° |
| 2026-05-03 21:20 | 40.90102 | 9.51519 | 46 ft | 10 kts | 59° |
| 2026-05-03 21:20 | 40.90143 | 9.51598 | 46 ft | 6 kts | 54° |
| 2026-05-03 21:20 | 40.90179 | 9.51594 | 46 ft | 5 kts | 326° |
| 2026-05-03 21:20 | 40.90197 | 9.51578 | 46 ft | 0 kts | 325° |